Jamestown, ND (58401)

6:27 PM CDT on July 28, 2016 (GMT -0500)
Leapaldt Addition | | Change Station

Elev 1486 ft 46.93 °N, 98.69 °W | Updated 8 minutes ago

Scattered Clouds
Scattered Clouds
74.3 °F
Feels Like 77 °F
N
4.2
Wind Variable Wind from NE

Today
High -- | Low -- °F
--% Chance of Precip.
Yesterday
High -- | Low -- °F
Precip. -- in
Pressure 30.07 in
Visibility 10.0 miles
Clouds Few 6000 ft
Scattered Clouds 7500 ft
Heat Index 77 °F
Dew Point 62 °F
Humidity 65%
Rainfall 0.00 in
Snow Depth Not available.
6:10 AM 9:11 PM
Waning Crescent, 28% visible
METAR KJMS 282256Z AUTO 04006KT 10SM FEW060 SCT075 23/16 A3007 RMK AO2 SLP182 T02280161
Pressure 30.07 in
Visibility 10.0 miles
Clouds Few 6000 ft
Scattered Clouds 7500 ft
Heat Index 77 °F
Dew Point 62 °F
Humidity 65%
Rainfall 0.00 in
Snow Depth Not available.
6:10 AM 9:11 PM
Waning Crescent, 28% visible
METAR KJMS 282256Z AUTO 04006KT 10SM FEW060 SCT075 23/16 A3007 RMK AO2 SLP182 T02280161

10-Day Weather Forecast

Almanac

Astronomy

Jul. 28, 2016 Rise Set
Actual Time
Civil Twilight
Nautical Twilight
Astronomical Twilight
Moon
Length of Visible Light
Length of Day
Tomorrow will be .
, % of the Moon is Illuminated

Today's Extremes

State Highs State Lows

Community

WunderPhotos

Upload Photos

1,928,228 photos uploaded!

WunderBlog® & News

Nearby

Air Quality

  Air Quality AQ Index Pollutant
Not available.

Snow Depth

Station Depth Elevation

Earthquake Activity

City Distance Mag. Time & Date
Minimum magnitude displayed is 2.5.

Coastal Water Temperatures

Place Temperature

Stations

Nearby Weather Stations

Station Location Temp. Windchill Dew Point Humidity Wind Precip. Elev Updated Type
                   

Watches & Warnings

There are currently no watches in effect.